DGAA/ACC METAR and TAF weather

Enter ICAO airport designator
Station Type Date Time Source
DGAA METAR 2019/08/19 23:00 UTC NOAA

DGAA 192300Z 22013KT 9999 SCT009 BKN011 25/23 Q1014 NOSIG


Station Type Date Time Source
DGAA Decoded METAR 2019/08/19 23:00 UTC NOAA

Accra, Ghana (DGAA) 05-36N 000-10W 69M
Aug 19, 2019 - 07:00 PM EDT / 2019.08.19 2300 UTC
Wind: from the SW (220 degrees) at 15 MPH (13 KT):0
Visibility: greater than 7 mile(s):0
Sky conditions: mostly cloudy
Temperature: 77 F (25 C)
Dew Point: 73 F (23 C)
Relative Humidity: 88%
Pressure (altimeter): 29.94 in. Hg (1014 hPa)
ob: DGAA 192300Z 22013KT 9999 SCT009 BKN011 25/23 Q1014 NOSIG
cycle: 23

Station Type Date Time Source
DGAA TAF 2019/08/19 12:21 UTC NOAA

TAF TAF DGAA 191100Z 1912/2018 20015KT SCT018 BKN023
BECMG 1918/1920 FEW017
BECMG 2000/2002 25005KT BKN010

Example: see airport list